createdAt,value
2023-04-03T00:00:42.276Z,5.35
2023-04-03T00:01:45.506Z,5.65
2023-04-03T00:02:47.426Z,4.80
2023-04-03T00:03:51.039Z,4.43
2023-04-03T00:04:56.962Z,6.00
2023-04-03T00:06:00.373Z,5.65
2023-04-03T00:07:03.143Z,5.70
2023-04-03T00:08:08.575Z,5.53
2023-04-03T00:09:11.348Z,6.63
2023-04-03T00:10:13.502Z,6.45
2023-04-03T00:11:17.068Z,5.82
2023-04-03T00:12:18.900Z,7.63
2023-04-03T00:13:21.685Z,6.90
2023-04-03T00:14:23.550Z,6.22
2023-04-03T00:15:26.455Z,6.47
2023-04-03T00:16:28.345Z,6.63
2023-04-03T00:17:31.181Z,6.45
2023-04-03T00:18:33.040Z,6.78
2023-04-03T00:19:35.879Z,7.22
2023-04-03T00:20:38.156Z,7.47
2023-04-03T00:21:42.516Z,7.05
2023-04-03T00:22:44.340Z,7.85
2023-04-03T00:23:47.236Z,6.25
2023-04-03T00:24:49.047Z,7.65
2023-04-03T00:25:52.179Z,6.43
2023-04-03T00:26:54.446Z,7.22
2023-04-03T00:27:57.211Z,6.53
2023-04-03T00:28:59.066Z,6.72
2023-04-03T00:30:01.897Z,6.82
2023-04-03T00:31:06.123Z,5.90
2023-04-03T00:32:08.885Z,5.68
2023-04-03T00:33:12.314Z,6.00
2023-04-03T00:34:15.035Z,6.07
2023-04-03T00:35:17.211Z,6.55
2023-04-03T00:36:20.280Z,4.90
2023-04-03T00:37:23.527Z,4.05
2023-04-03T00:38:26.397Z,4.75
2023-04-03T00:39:28.542Z,4.22
2023-04-03T00:40:36.241Z,4.18
2023-04-03T00:41:38.230Z,4.03
2023-04-03T00:42:44.312Z,4.30
2023-04-03T00:43:46.161Z,5.47
2023-04-03T00:45:28.218Z,5.00
2023-04-03T00:46:31.493Z,4.72
2023-04-03T00:47:34.425Z,4.75
2023-04-03T00:48:39.975Z,5.07
2023-04-03T00:49:42.244Z,4.40
2023-04-03T00:50:45.377Z,4.15
2023-04-03T00:51:47.585Z,3.72
2023-04-03T00:52:51.972Z,3.53
2023-04-03T00:53:58.035Z,4.05
2023-04-03T00:55:03.667Z,3.63
2023-04-03T00:56:08.406Z,3.63
2023-04-03T00:57:11.845Z,3.83
2023-04-03T00:58:15.518Z,4.00
2023-04-03T00:59:23.098Z,3.35
2023-04-03T01:00:27.110Z,3.50
2023-04-03T01:01:30.673Z,3.33
2023-04-03T01:02:35.600Z,3.63
2023-04-03T01:03:39.009Z,3.42
2023-04-03T01:04:43.629Z,3.70
2023-04-03T01:05:46.569Z,3.63
2023-04-03T01:06:48.379Z,4.07
2023-04-03T01:07:53.446Z,3.85
2023-04-03T01:08:56.258Z,3.90
2023-04-03T01:10:01.423Z,4.05
2023-04-03T01:11:03.600Z,4.60
2023-04-03T01:12:17.816Z,4.50
2023-04-03T01:13:25.347Z,4.10
2023-04-03T01:14:27.230Z,5.07
2023-04-03T01:15:33.804Z,4.97
2023-04-03T01:16:35.833Z,5.47
2023-04-03T01:17:40.639Z,5.13
2023-04-03T01:18:43.769Z,5.90
2023-04-03T01:19:56.021Z,5.93
2023-04-03T01:21:22.642Z,5.72
2023-04-03T01:22:27.456Z,5.38
2023-04-03T01:23:39.519Z,6.20
2023-04-03T01:24:42.314Z,5.80
2023-04-03T01:25:49.052Z,5.90
2023-04-03T01:26:52.213Z,5.82
2023-04-03T01:27:54.412Z,6.40
2023-04-03T01:28:57.599Z,6.82
2023-04-03T01:29:59.623Z,6.45
2023-04-03T01:31:05.947Z,6.60
2023-04-03T01:32:12.184Z,6.65
2023-04-03T01:33:14.024Z,6.78
2023-04-03T01:34:17.073Z,7.35
2023-04-03T01:35:19.570Z,6.85
2023-04-03T01:36:25.550Z,7.13
2023-04-03T01:37:27.468Z,7.22
2023-04-03T01:38:30.769Z,7.35
2023-04-03T01:39:32.643Z,7.00
2023-04-03T01:40:37.122Z,7.35
2023-04-03T01:41:39.281Z,6.72
2023-04-03T01:42:49.334Z,6.72
2023-04-03T01:43:51.318Z,7.00
2023-04-03T01:44:54.181Z,7.18
2023-04-03T01:45:56.079Z,7.13
2023-04-03T01:46:59.033Z,7.03
2023-04-03T01:48:06.002Z,7.38
2023-04-03T01:49:08.807Z,6.65
2023-04-03T01:50:10.841Z,6.85
2023-04-03T01:51:14.058Z,7.63
2023-04-03T01:52:16.296Z,6.97
2023-04-03T01:53:19.081Z,7.10
2023-04-03T01:54:21.331Z,7.20
2023-04-03T01:55:24.234Z,7.43
2023-04-03T01:56:26.138Z,7.03
2023-04-03T01:57:29.220Z,6.78
2023-04-03T01:58:31.499Z,7.57
2023-04-03T01:59:34.313Z,7.55
2023-04-03T02:00:37.648Z,8.40
2023-04-03T02:01:41.563Z,7.82
2023-04-03T02:02:45.026Z,7.82
2023-04-03T02:03:49.447Z,7.72
2023-04-03T02:04:51.256Z,7.82
2023-04-03T02:05:54.945Z,7.45
2023-04-03T02:07:01.207Z,7.30
2023-04-03T02:08:04.045Z,7.75
2023-04-03T02:09:06.095Z,7.45
2023-04-03T02:10:09.536Z,7.40
2023-04-03T02:11:11.362Z,7.10
2023-04-03T02:12:14.130Z,6.80
2023-04-03T02:13:16.382Z,7.70
2023-04-03T02:14:19.170Z,8.07
2023-04-03T02:15:21.665Z,8.32
2023-04-03T02:16:24.584Z,7.72
2023-04-03T02:17:26.421Z,7.70
2023-04-03T02:18:31.410Z,8.00
2023-04-03T02:19:35.584Z,7.53
2023-04-03T02:20:39.173Z,7.50
2023-04-03T02:21:41.280Z,7.47
2023-04-03T02:22:44.433Z,7.93
2023-04-03T02:23:46.355Z,8.50
2023-04-03T02:24:49.146Z,7.93
2023-04-03T02:25:51.129Z,7.38
2023-04-03T02:26:53.883Z,7.97
2023-04-03T02:27:55.744Z,7.50
2023-04-03T02:29:00.096Z,7.18
2023-04-03T02:30:01.929Z,7.35
2023-04-03T02:31:05.743Z,7.40
2023-04-03T02:32:08.096Z,7.03
2023-04-03T02:33:12.001Z,6.68
2023-04-03T02:34:14.884Z,7.30
2023-04-03T02:35:22.129Z,7.20
2023-04-03T02:36:24.496Z,6.85
2023-04-03T02:37:32.306Z,7.30
2023-04-03T02:38:34.852Z,6.88
2023-04-03T02:39:37.742Z,6.50
2023-04-03T02:40:39.792Z,6.00
2023-04-03T02:41:42.796Z,5.72
2023-04-03T02:42:49.686Z,6.45
2023-04-03T02:43:52.480Z,6.15
2023-04-03T02:44:56.248Z,6.32
2023-04-03T02:45:59.474Z,5.65
2023-04-03T02:47:01.323Z,6.20
2023-04-03T02:48:04.814Z,6.38
2023-04-03T02:49:06.787Z,5.90
2023-04-03T02:50:10.577Z,6.05
2023-04-03T02:51:13.760Z,6.07
2023-04-03T02:52:16.590Z,5.93
2023-04-03T02:53:18.753Z,5.65
2023-04-03T02:54:28.663Z,5.22
2023-04-03T02:55:32.492Z,5.57
2023-04-03T02:56:35.401Z,5.55
2023-04-03T02:57:37.330Z,5.38
2023-04-03T02:58:40.306Z,5.10
2023-04-03T02:59:43.610Z,5.70
2023-04-03T03:00:47.682Z,6.32
2023-04-03T03:01:49.530Z,5.18
2023-04-03T03:02:52.350Z,5.30
2023-04-03T03:03:54.278Z,5.60
2023-04-03T03:04:57.214Z,5.45
2023-04-03T03:06:03.673Z,5.38
2023-04-03T03:07:08.167Z,5.72
2023-04-03T03:08:09.932Z,4.68
2023-04-03T03:09:14.005Z,5.18
2023-04-03T03:10:18.149Z,4.90
2023-04-03T03:11:23.151Z,4.80
2023-04-03T03:12:25.638Z,5.20
2023-04-03T03:13:29.648Z,5.50
2023-04-03T03:14:32.313Z,4.90
2023-04-03T03:15:35.123Z,4.93
2023-04-03T03:16:37.904Z,4.80
2023-04-03T03:17:40.765Z,5.65
2023-04-03T03:18:42.552Z,4.90
2023-04-03T03:19:46.661Z,5.00
2023-04-03T03:20:52.037Z,5.38
2023-04-03T03:21:56.063Z,4.93
2023-04-03T03:22:59.549Z,5.20
2023-04-03T03:24:02.311Z,5.40
2023-04-03T03:25:04.891Z,5.10
2023-04-03T03:26:09.406Z,5.38
2023-04-03T03:27:11.387Z,5.18
2023-04-03T03:28:14.124Z,4.88
2023-04-03T03:29:17.700Z,5.38
2023-04-03T03:30:22.402Z,4.97
2023-04-03T03:31:24.246Z,5.45
2023-04-03T03:32:27.280Z,4.97
2023-04-03T03:33:29.503Z,5.20
2023-04-03T03:34:32.404Z,4.70
2023-04-03T03:35:35.173Z,5.43
2023-04-03T03:36:39.190Z,5.18
2023-04-03T03:37:41.118Z,5.50
2023-04-03T03:38:45.614Z,5.22
2023-04-03T03:39:47.454Z,5.47
2023-04-03T03:40:51.279Z,5.55
2023-04-03T03:41:56.545Z,4.78
2023-04-03T03:42:59.630Z,6.05
2023-04-03T03:44:01.487Z,5.55
2023-04-03T03:45:09.023Z,4.88
2023-04-03T03:46:10.933Z,5.63
2023-04-03T03:47:13.737Z,5.57
2023-04-03T03:48:16.912Z,5.20
2023-04-03T03:49:19.706Z,5.38
2023-04-03T03:50:21.632Z,5.22
2023-04-03T03:51:26.764Z,5.65
2023-04-03T03:52:29.107Z,6.15
2023-04-03T03:53:32.957Z,5.57
2023-04-03T03:54:42.551Z,5.20
2023-04-03T03:55:44.637Z,5.80
2023-04-03T03:56:47.475Z,5.50
2023-04-03T03:57:50.848Z,6.03
2023-04-03T03:58:54.637Z,6.38
2023-04-03T03:59:57.039Z,6.05
2023-04-03T04:01:02.773Z,7.20
2023-04-03T04:02:04.703Z,6.88
2023-04-03T04:03:07.656Z,6.72
2023-04-03T04:04:09.891Z,6.07
2023-04-03T04:05:12.913Z,5.40
2023-04-03T04:06:14.753Z,5.40
2023-04-03T04:07:17.695Z,5.50
2023-04-03T04:08:19.569Z,5.88
2023-04-03T04:09:22.781Z,5.63
2023-04-03T04:10:26.997Z,5.20
2023-04-03T04:11:30.247Z,5.30
2023-04-03T04:12:32.275Z,5.22
2023-04-03T04:13:35.696Z,4.65
2023-04-03T04:14:37.824Z,5.40
2023-04-03T04:15:42.231Z,4.75
2023-04-03T04:16:44.232Z,4.65
2023-04-03T04:17:52.384Z,4.70
2023-04-03T04:18:54.259Z,4.13
2023-04-03T04:19:58.950Z,4.55
2023-04-03T04:21:01.109Z,4.20
2023-04-03T04:22:04.337Z,5.20
2023-04-03T04:23:08.267Z,5.05
2023-04-03T04:24:12.615Z,4.97
2023-04-03T04:25:14.993Z,4.80
2023-04-03T04:26:21.241Z,5.07
2023-04-03T04:27:23.435Z,5.10
2023-04-03T04:28:26.319Z,5.28
2023-04-03T04:29:29.992Z,5.38
2023-04-03T04:30:32.970Z,5.70
2023-04-03T04:31:35.283Z,4.85
2023-04-03T04:32:38.397Z,4.50
2023-04-03T04:33:41.159Z,6.20
2023-04-03T04:34:46.471Z,6.05
2023-04-03T04:35:51.061Z,5.00
2023-04-03T04:36:56.217Z,5.00
2023-04-03T04:37:58.243Z,5.65
2023-04-03T04:39:01.201Z,5.15
2023-04-03T04:40:04.104Z,6.18
2023-04-03T04:41:09.741Z,5.13
2023-04-03T04:42:17.457Z,5.70
2023-04-03T04:43:24.973Z,15.73
2023-04-03T04:44:30.272Z,11.13
2023-04-03T04:45:32.575Z,20.42
2023-04-03T04:46:35.934Z,12.80
2023-04-03T04:47:37.987Z,16.63
2023-04-03T04:48:41.872Z,11.65
2023-04-03T04:49:44.428Z,13.25
2023-04-03T04:50:47.968Z,11.35
2023-04-03T04:51:52.309Z,18.10
2023-04-03T04:53:00.500Z,20.35
2023-04-03T04:54:02.333Z,5.50
2023-04-03T04:55:06.703Z,26.17
2023-04-03T04:56:08.839Z,9.02
2023-04-03T04:57:13.535Z,10.05
2023-04-03T04:58:16.799Z,12.00
2023-04-03T04:59:21.859Z,21.23
2023-04-03T05:00:24.640Z,4.70
2023-04-03T05:01:27.484Z,15.13
2023-04-03T05:02:47.960Z,5.65
2023-04-03T05:03:50.222Z,16.58
2023-04-03T05:04:55.547Z,4.32
2023-04-03T05:06:03.030Z,4.38
2023-04-03T05:07:06.732Z,4.32
2023-04-03T05:08:12.815Z,4.18
2023-04-03T05:09:17.082Z,5.80
2023-04-03T05:10:21.537Z,4.22
2023-04-03T05:11:25.161Z,4.25
2023-04-03T05:12:28.730Z,4.68
2023-04-03T05:13:36.047Z,5.40
2023-04-03T05:14:39.058Z,7.60
2023-04-03T05:15:43.552Z,4.78
2023-04-03T05:16:46.479Z,4.95
2023-04-03T05:17:48.522Z,6.05
2023-04-03T05:18:52.284Z,5.68
2023-04-03T05:19:58.316Z,4.70
2023-04-03T05:21:03.401Z,9.50
2023-04-03T05:22:06.125Z,8.02
2023-04-03T05:23:09.136Z,4.30
2023-04-03T05:24:11.490Z,4.82
2023-04-03T05:25:17.705Z,6.28
2023-04-03T05:26:20.156Z,8.27
2023-04-03T05:27:25.104Z,5.60
2023-04-03T05:28:29.619Z,5.80
2023-04-03T05:29:33.951Z,5.05
2023-04-03T05:30:39.167Z,5.93
2023-04-03T05:31:41.977Z,8.20
2023-04-03T05:32:46.431Z,10.48
2023-04-03T05:33:54.746Z,9.65
2023-04-03T05:35:01.170Z,5.15
2023-04-03T05:36:05.805Z,3.40
2023-04-03T05:37:16.019Z,7.53
2023-04-03T05:38:19.206Z,9.02
2023-04-03T05:39:22.020Z,10.15
2023-04-03T05:40:25.388Z,9.98
2023-04-03T05:41:30.774Z,6.93
2023-04-03T05:42:33.712Z,6.05
2023-04-03T05:43:39.922Z,6.07
2023-04-03T05:44:47.815Z,4.25
2023-04-03T05:45:49.914Z,4.45
2023-04-03T05:46:52.875Z,10.77
2023-04-03T05:47:55.550Z,6.10
2023-04-03T05:48:58.395Z,8.32
2023-04-03T05:50:06.686Z,11.77
2023-04-03T05:51:14.980Z,11.35
2023-04-03T05:52:22.786Z,12.07
2023-04-03T05:53:28.471Z,8.45
2023-04-03T05:54:33.554Z,8.02
2023-04-03T05:55:46.791Z,9.57
2023-04-03T05:56:52.769Z,13.30
2023-04-03T05:57:57.469Z,17.73
2023-04-03T05:59:00.443Z,13.27
2023-04-03T06:00:06.617Z,3.40
2023-04-03T06:01:17.149Z,8.98
2023-04-03T06:02:22.695Z,12.88
2023-04-03T06:03:26.504Z,10.00
2023-04-03T06:04:29.501Z,11.23
2023-04-03T06:05:31.470Z,11.77
2023-04-03T06:06:46.791Z,9.40
2023-04-03T06:07:50.627Z,7.88
2023-04-03T06:08:54.137Z,8.57
2023-04-03T06:09:58.200Z,10.15
2023-04-03T06:11:00.975Z,8.65
2023-04-03T06:12:03.993Z,9.25
2023-04-03T06:13:06.995Z,8.95
2023-04-03T06:14:10.148Z,3.72
2023-04-03T06:15:16.507Z,8.85
2023-04-03T06:16:18.824Z,10.90
2023-04-03T06:17:21.638Z,6.95
2023-04-03T06:18:24.065Z,11.18
2023-04-03T06:19:27.849Z,6.90
2023-04-03T06:20:33.046Z,8.63
2023-04-03T06:21:36.674Z,3.88
2023-04-03T06:22:40.265Z,8.32
2023-04-03T06:23:42.891Z,8.25
2023-04-03T06:24:45.674Z,5.07
2023-04-03T06:25:48.626Z,7.57
2023-04-03T06:26:52.279Z,4.70
2023-04-03T06:27:56.379Z,5.50
2023-04-03T06:28:58.315Z,7.82
2023-04-03T06:30:01.068Z,9.20
2023-04-03T06:31:04.239Z,5.70
2023-04-03T06:32:08.105Z,5.43
2023-04-03T06:33:11.721Z,5.03
2023-04-03T06:34:13.763Z,6.35
2023-04-03T06:35:17.919Z,3.08
2023-04-03T06:36:21.569Z,4.28
2023-04-03T06:37:26.914Z,5.13
2023-04-03T06:38:29.721Z,5.18
2023-04-03T06:39:31.602Z,6.22
2023-04-03T06:40:34.656Z,3.33
2023-04-03T06:41:37.271Z,5.15
2023-04-03T06:42:40.150Z,4.10
2023-04-03T06:43:47.124Z,3.15
2023-04-03T06:44:49.167Z,3.90
2023-04-03T06:45:52.289Z,13.57
2023-04-03T06:46:56.531Z,14.32
2023-04-03T06:47:59.828Z,7.22
2023-04-03T06:49:02.932Z,8.63
2023-04-03T06:50:07.984Z,8.15
2023-04-03T06:51:18.348Z,4.20
2023-04-03T06:52:21.675Z,6.40
2023-04-03T06:53:24.745Z,5.00
2023-04-03T06:54:31.832Z,4.53
2023-04-03T06:55:34.728Z,4.03
2023-04-03T06:56:36.700Z,6.80
2023-04-03T06:57:39.960Z,5.60
2023-04-03T06:58:42.536Z,4.80
2023-04-03T06:59:45.573Z,5.40
2023-04-03T07:00:48.296Z,4.68
2023-04-03T07:01:51.242Z,6.30
2023-04-03T07:02:54.580Z,7.25
2023-04-03T07:03:58.382Z,3.38
2023-04-03T07:05:00.336Z,7.30
2023-04-03T07:06:03.226Z,4.40
2023-04-03T07:07:09.339Z,7.10
2023-04-03T07:08:12.263Z,8.05
2023-04-03T07:09:15.078Z,8.65
2023-04-03T07:10:19.302Z,3.33
2023-04-03T07:11:22.681Z,3.53
2023-04-03T07:12:25.590Z,10.20
2023-04-03T07:13:27.716Z,7.05
2023-04-03T07:14:30.538Z,6.07
2023-04-03T07:15:32.384Z,7.78
2023-04-03T07:16:35.897Z,6.07
2023-04-03T07:17:38.984Z,6.57
2023-04-03T07:18:42.478Z,7.82
2023-04-03T07:19:45.416Z,6.82
2023-04-03T07:20:47.259Z,5.18
2023-04-03T07:21:53.985Z,5.85
2023-04-03T07:22:57.066Z,8.25
2023-04-03T07:23:59.058Z,9.05
2023-04-03T07:25:01.902Z,4.78
2023-04-03T07:26:04.056Z,5.47
2023-04-03T07:27:09.352Z,5.88
2023-04-03T07:28:11.170Z,5.43
2023-04-03T07:29:14.224Z,4.50
2023-04-03T07:30:16.292Z,4.75
2023-04-03T07:31:19.772Z,5.53
2023-04-03T07:32:23.930Z,5.60
2023-04-03T07:33:25.869Z,6.03
2023-04-03T07:34:30.016Z,8.75
2023-04-03T07:35:32.028Z,6.93
2023-04-03T07:36:34.871Z,6.75
2023-04-03T07:37:37.744Z,7.75
2023-04-03T07:38:41.512Z,6.60
2023-04-03T07:39:45.784Z,7.78
2023-04-03T07:40:49.432Z,5.95
2023-04-03T07:41:52.756Z,6.53
2023-04-03T07:42:57.450Z,7.32
2023-04-03T07:44:00.334Z,6.80
2023-04-03T07:45:02.656Z,6.25
2023-04-03T07:46:07.233Z,6.38
2023-04-03T07:47:09.517Z,4.55
2023-04-03T07:48:14.054Z,6.45
2023-04-03T07:49:15.920Z,7.40
2023-04-03T07:50:23.226Z,4.28
2023-04-03T07:51:30.826Z,6.47
2023-04-03T07:52:32.662Z,9.68
2023-04-03T07:53:35.988Z,11.40
2023-04-03T07:54:41.092Z,6.85
2023-04-03T07:55:44.856Z,3.92
2023-04-03T07:56:47.699Z,4.90
2023-04-03T07:57:49.632Z,8.13
2023-04-03T07:58:56.024Z,6.22
2023-04-03T07:59:58.823Z,5.05
2023-04-03T08:01:01.563Z,4.30
2023-04-03T08:02:05.932Z,5.03
2023-04-03T08:03:12.579Z,7.55
2023-04-03T08:04:16.985Z,5.28
2023-04-03T08:05:19.287Z,4.57
2023-04-03T08:06:32.959Z,5.88
2023-04-03T08:07:43.732Z,6.95
2023-04-03T08:08:45.583Z,9.77
2023-04-03T08:09:50.210Z,6.05
2023-04-03T08:10:56.748Z,5.38
2023-04-03T08:11:59.859Z,6.35
2023-04-03T08:13:02.094Z,5.57
2023-04-03T08:14:06.535Z,4.38
2023-04-03T08:15:09.826Z,5.30
2023-04-03T08:16:14.487Z,5.68
2023-04-03T08:17:17.513Z,4.82
2023-04-03T08:18:22.734Z,7.82
2023-04-03T08:19:26.838Z,4.28
2023-04-03T08:20:30.051Z,6.50
2023-04-03T08:21:34.147Z,6.63
2023-04-03T08:22:36.200Z,6.43
2023-04-03T08:23:39.439Z,4.80
2023-04-03T08:24:56.310Z,6.47
2023-04-03T08:26:01.895Z,5.35
2023-04-03T08:27:05.156Z,5.65
2023-04-03T08:28:07.665Z,4.65
2023-04-03T08:29:10.553Z,5.13
2023-04-03T08:30:15.635Z,4.60
2023-04-03T08:31:21.102Z,4.55
2023-04-03T08:32:24.134Z,2.70
2023-04-03T08:33:26.239Z,2.47
2023-04-03T08:34:29.000Z,4.47
2023-04-03T08:35:31.052Z,2.35
2023-04-03T08:36:39.415Z,3.47
2023-04-03T08:37:42.393Z,2.88
2023-04-03T08:38:44.273Z,3.55
2023-04-03T08:39:48.684Z,2.78
2023-04-03T08:41:02.120Z,3.35
2023-04-03T08:42:08.448Z,2.75
2023-04-03T08:43:28.279Z,2.75
2023-04-03T08:44:44.913Z,3.08
2023-04-03T08:45:52.586Z,4.85
2023-04-03T08:47:05.455Z,4.80
2023-04-03T08:48:14.106Z,4.05
2023-04-03T08:49:24.814Z,3.38
2023-04-03T08:50:32.516Z,4.60
2023-04-03T08:51:34.411Z,5.40
2023-04-03T08:52:41.496Z,5.25
2023-04-03T08:53:46.564Z,5.88
2023-04-03T08:54:54.978Z,3.20
2023-04-03T08:56:00.766Z,4.00
2023-04-03T08:57:06.149Z,4.15
2023-04-03T08:58:13.295Z,5.22
2023-04-03T08:59:24.012Z,3.60
2023-04-03T09:00:29.238Z,3.60
2023-04-03T09:01:36.565Z,3.83
2023-04-03T09:02:44.051Z,3.40
2023-04-03T09:03:46.860Z,2.63
2023-04-03T09:04:49.694Z,4.30
2023-04-03T09:05:57.797Z,4.13
2023-04-03T09:07:04.820Z,3.85
2023-04-03T09:08:15.507Z,3.10
2023-04-03T09:09:31.174Z,3.15
2023-04-03T09:10:35.564Z,2.78
2023-04-03T09:11:48.228Z,3.67
2023-04-03T09:12:59.509Z,4.32
2023-04-03T09:14:06.523Z,3.15
2023-04-03T09:15:20.031Z,3.00
2023-04-03T09:16:36.192Z,3.10
2023-04-03T09:17:44.626Z,3.15
2023-04-03T09:18:49.982Z,2.55
2023-04-03T09:19:59.313Z,3.47
2023-04-03T09:21:08.260Z,2.75
2023-04-03T09:22:16.188Z,2.90
2023-04-03T09:23:26.387Z,3.42
2023-04-03T09:24:29.988Z,3.60
2023-04-03T09:25:35.575Z,3.10
2023-04-03T09:26:44.538Z,2.78
2023-04-03T09:27:47.958Z,2.42
2023-04-03T09:28:51.402Z,3.55
2023-04-03T09:29:56.219Z,3.85
2023-04-03T09:30:59.036Z,5.90
2023-04-03T09:32:03.348Z,3.70
2023-04-03T09:33:08.404Z,3.03
2023-04-03T09:34:18.940Z,2.63
2023-04-03T09:35:32.909Z,2.40
2023-04-03T09:36:46.421Z,2.90
2023-04-03T09:37:50.661Z,2.55
2023-04-03T09:39:07.993Z,2.95
2023-04-03T09:40:30.661Z,3.10
2023-04-03T09:41:34.218Z,3.03
2023-04-03T09:42:46.252Z,2.92
2023-04-03T09:43:54.751Z,2.70
2023-04-03T09:45:00.018Z,4.88
2023-04-03T09:46:21.135Z,4.13
2023-04-03T09:47:26.034Z,2.60
2023-04-03T09:48:29.308Z,2.90
2023-04-03T09:49:32.189Z,3.53
2023-04-03T09:50:36.311Z,2.10
2023-04-03T09:51:39.308Z,3.35
2023-04-03T09:52:42.509Z,3.22
2023-04-03T09:53:46.793Z,3.60
2023-04-03T09:54:51.354Z,4.68
2023-04-03T09:55:53.343Z,5.90
2023-04-03T09:56:57.653Z,6.00
2023-04-03T09:58:02.245Z,6.53
2023-04-03T09:59:14.377Z,2.65
2023-04-03T10:00:23.820Z,2.40
2023-04-03T10:01:33.249Z,2.30
2023-04-03T10:02:40.137Z,3.28
2023-04-03T10:03:47.670Z,6.15
2023-04-03T10:05:02.559Z,5.55
2023-04-03T10:06:24.833Z,4.28
2023-04-03T10:07:30.350Z,3.53
2023-04-03T10:08:34.454Z,2.00
2023-04-03T10:09:38.735Z,2.25
2023-04-03T10:10:46.508Z,2.42
2023-04-03T10:12:06.668Z,2.00
2023-04-03T10:13:20.208Z,2.53
2023-04-03T10:14:26.152Z,2.85
2023-04-03T10:15:32.181Z,2.53
2023-04-03T10:16:40.293Z,2.97
2023-04-03T10:17:52.387Z,2.33
2023-04-03T10:19:03.601Z,2.20
2023-04-03T10:20:13.100Z,2.15
2023-04-03T10:21:31.258Z,1.90
2023-04-03T10:22:41.500Z,2.78
2023-04-03T10:23:47.368Z,2.30
2023-04-03T10:25:01.652Z,2.22
2023-04-03T10:26:13.981Z,2.20
2023-04-03T10:27:21.046Z,2.75
2023-04-03T10:28:26.545Z,2.67
2023-04-03T10:29:41.966Z,1.85
2023-04-03T10:30:51.500Z,2.03
2023-04-03T10:32:03.084Z,2.10
2023-04-03T10:33:18.222Z,2.30
2023-04-03T10:34:24.045Z,2.28
2023-04-03T10:35:34.782Z,2.50
2023-04-03T10:36:44.005Z,2.70
2023-04-03T10:37:56.581Z,2.25
2023-04-03T10:39:04.950Z,2.97
2023-04-03T10:40:27.092Z,2.90
2023-04-03T10:41:37.194Z,2.33
2023-04-03T10:42:46.055Z,2.30
2023-04-03T10:43:56.374Z,2.30
2023-04-03T10:45:05.850Z,1.88
2023-04-03T10:46:11.788Z,2.03
2023-04-03T10:47:18.468Z,2.60
2023-04-03T10:48:32.152Z,1.70
2023-04-03T10:49:57.186Z,1.92
2023-04-03T10:51:13.241Z,1.90
2023-04-03T10:52:20.121Z,3.00
2023-04-03T10:53:29.553Z,2.60
2023-04-03T10:54:36.593Z,2.63
2023-04-03T10:55:42.076Z,2.60
2023-04-03T10:56:57.884Z,2.80
2023-04-03T10:58:08.283Z,2.83
2023-04-03T10:59:23.603Z,2.63
2023-04-03T11:00:32.069Z,1.80
2023-04-03T11:01:38.022Z,2.33
2023-04-03T11:02:44.861Z,2.22
2023-04-03T11:03:49.254Z,2.20
2023-04-03T11:04:55.759Z,1.83
2023-04-03T11:05:58.724Z,2.00
2023-04-03T11:07:04.217Z,2.20
2023-04-03T11:08:19.782Z,1.88
2023-04-03T11:09:26.496Z,1.85
2023-04-03T11:10:34.637Z,2.10
2023-04-03T11:11:43.000Z,2.13
2023-04-03T11:12:50.429Z,2.25
2023-04-03T11:13:56.912Z,2.42
2023-04-03T11:15:00.031Z,2.50
2023-04-03T11:16:01.972Z,1.90
2023-04-03T11:17:14.330Z,1.80
2023-04-03T11:18:19.983Z,1.63
2023-04-03T11:19:25.224Z,1.50
2023-04-03T11:20:34.091Z,2.40
2023-04-03T11:21:41.594Z,1.80
2023-04-03T11:22:48.976Z,2.80
2023-04-03T11:23:53.311Z,2.30
2023-04-03T11:25:04.071Z,2.10
2023-04-03T11:26:13.553Z,3.17
2023-04-03T11:27:23.396Z,2.85
2023-04-03T11:28:28.055Z,2.60
2023-04-03T11:29:35.721Z,2.70
2023-04-03T11:30:44.059Z,2.95
2023-04-03T11:32:03.773Z,2.45
2023-04-03T11:33:31.475Z,3.58
2023-04-03T11:34:39.261Z,2.47
2023-04-03T11:35:44.446Z,2.40
2023-04-03T11:36:50.099Z,2.35
2023-04-03T11:37:54.393Z,2.38
2023-04-03T11:39:00.963Z,2.00
2023-04-03T11:40:05.988Z,1.50
2023-04-03T11:41:10.270Z,1.60
2023-04-03T11:42:16.917Z,1.75
2023-04-03T11:43:26.465Z,2.53
2023-04-03T11:44:39.335Z,2.42
2023-04-03T11:45:52.749Z,2.08
2023-04-03T11:46:58.225Z,2.17
2023-04-03T11:48:12.932Z,1.92
2023-04-03T11:49:59.156Z,1.90
2023-04-03T11:51:42.191Z,1.85
2023-04-03T11:53:28.139Z,2.13
2023-04-03T11:54:49.015Z,1.75
2023-04-03T11:56:03.052Z,1.85
2023-04-03T11:57:34.423Z,2.03
2023-04-03T11:58:37.340Z,2.35
2023-04-03T11:59:42.986Z,4.57
2023-04-03T12:01:11.320Z,2.55
2023-04-03T12:02:51.275Z,2.13
2023-04-03T12:04:08.918Z,1.77
2023-04-03T12:05:27.132Z,2.55
2023-04-03T12:07:20.019Z,2.35
2023-04-03T12:08:26.115Z,1.83
2023-04-03T12:09:36.497Z,2.00
2023-04-03T12:10:39.521Z,1.92
2023-04-03T12:11:41.854Z,2.20
2023-04-03T12:12:44.846Z,4.07
2023-04-03T12:14:05.824Z,3.30
2023-04-03T12:15:48.075Z,2.13
2023-04-03T12:16:52.204Z,1.95
2023-04-03T12:17:56.346Z,1.80
2023-04-03T12:19:03.771Z,2.22
2023-04-03T12:20:54.094Z,2.67
2023-04-03T12:22:12.649Z,3.35
2023-04-03T12:23:30.916Z,2.10
2023-04-03T12:24:34.841Z,2.78
2023-04-03T12:25:51.282Z,2.17
2023-04-03T12:27:05.543Z,2.15
2023-04-03T12:28:08.742Z,1.80
2023-04-03T12:29:16.672Z,2.08
2023-04-03T12:30:23.909Z,3.03
2023-04-03T12:31:42.116Z,2.42
2023-04-03T12:33:11.812Z,2.28
2023-04-03T12:34:29.448Z,2.47
2023-04-03T12:35:33.369Z,2.17
2023-04-03T12:36:44.892Z,2.25
2023-04-03T12:38:14.521Z,2.40
2023-04-03T12:39:38.885Z,2.35
2023-04-03T12:40:44.356Z,2.50
2023-04-03T12:41:53.668Z,1.92
2023-04-03T12:43:15.922Z,2.22
2023-04-03T12:44:30.392Z,2.38
2023-04-03T12:45:41.555Z,2.90
2023-04-03T12:46:48.145Z,4.13
2023-04-03T12:47:54.782Z,2.60
2023-04-03T12:48:59.615Z,2.78
2023-04-03T12:50:02.657Z,2.53
2023-04-03T12:51:07.517Z,2.40
2023-04-03T12:52:20.647Z,2.22
2023-04-03T12:53:25.242Z,3.03
2023-04-03T12:54:30.676Z,3.13
2023-04-03T12:55:33.658Z,3.10
2023-04-03T12:56:35.693Z,2.00
2023-04-03T12:57:38.987Z,2.50
2023-04-03T12:58:41.003Z,2.58
2023-04-03T12:59:44.703Z,2.50
2023-04-03T13:00:47.587Z,2.40
2023-04-03T13:01:58.877Z,2.85
2023-04-03T13:03:01.346Z,2.38
2023-04-03T13:04:05.167Z,2.13
2023-04-03T13:05:10.208Z,3.20
2023-04-03T13:06:19.601Z,3.53
2023-04-03T13:07:23.927Z,3.00
2023-04-03T13:08:27.034Z,1.90
2023-04-03T13:09:32.012Z,3.42
2023-04-03T13:10:46.176Z,2.40
2023-04-03T13:11:50.024Z,2.10
2023-04-03T13:12:55.019Z,1.98
2023-04-03T13:14:00.634Z,3.38
2023-04-03T13:15:14.242Z,4.10
2023-04-03T13:16:19.060Z,2.72
2023-04-03T13:17:51.135Z,2.78
2023-04-03T13:18:56.422Z,2.65
2023-04-03T13:20:12.341Z,3.20
2023-04-03T13:21:17.589Z,2.33
2023-04-03T13:22:30.851Z,1.90
2023-04-03T13:23:34.441Z,2.33
2023-04-03T13:24:40.750Z,2.40
2023-04-03T13:25:46.038Z,2.50
2023-04-03T13:26:47.897Z,2.75
2023-04-03T13:27:53.909Z,2.40
2023-04-03T13:29:04.047Z,2.38
2023-04-03T13:30:07.637Z,2.78
2023-04-03T13:31:18.897Z,2.92
2023-04-03T13:32:24.846Z,2.50
2023-04-03T13:33:32.443Z,2.72
2023-04-03T13:34:38.155Z,2.10
2023-04-03T13:35:44.014Z,2.70
2023-04-03T13:36:48.408Z,2.30
2023-04-03T13:37:55.354Z,2.33
2023-04-03T13:39:08.068Z,3.67
2023-04-03T13:40:12.810Z,2.90
2023-04-03T13:41:28.420Z,3.13
2023-04-03T13:42:34.696Z,3.22
2023-04-03T13:43:37.968Z,3.17
2023-04-03T13:44:41.591Z,2.90
2023-04-03T13:45:56.104Z,3.03
2023-04-03T13:47:01.544Z,3.10
2023-04-03T13:48:23.157Z,4.75
2023-04-03T13:49:34.397Z,3.83
2023-04-03T13:50:52.046Z,3.28
2023-04-03T13:52:06.648Z,3.45
2023-04-03T13:53:14.382Z,3.50
2023-04-03T13:54:23.200Z,3.90
2023-04-03T13:55:27.924Z,5.00
2023-04-03T13:56:34.622Z,4.57
2023-04-03T13:57:36.511Z,6.10
2023-04-03T13:58:39.956Z,5.22
2023-04-03T13:59:44.041Z,4.93
2023-04-03T14:00:51.407Z,5.50
2023-04-03T14:01:56.733Z,4.80
2023-04-03T14:02:59.838Z,2.75
2023-04-03T14:04:13.700Z,2.53
2023-04-03T14:05:22.100Z,2.45
2023-04-03T14:06:24.615Z,3.03
2023-04-03T14:07:28.486Z,3.22
2023-04-03T14:08:42.438Z,3.88
2023-04-03T14:09:48.824Z,2.85
2023-04-03T14:10:51.955Z,3.38
2023-04-03T14:11:58.015Z,3.33
2023-04-03T14:13:01.203Z,3.40
2023-04-03T14:14:07.277Z,2.50
2023-04-03T14:15:19.002Z,2.67
2023-04-03T14:16:24.296Z,2.78
2023-04-03T14:17:27.387Z,3.03
2023-04-03T14:18:30.265Z,3.28
2023-04-03T14:19:34.689Z,3.03
2023-04-03T14:20:39.473Z,3.20
2023-04-03T14:21:42.597Z,3.00
2023-04-03T14:22:46.555Z,3.20
2023-04-03T14:23:49.649Z,4.00
2023-04-03T14:24:52.762Z,2.80
2023-04-03T14:25:56.607Z,3.03
2023-04-03T14:26:58.453Z,4.32
2023-04-03T14:28:01.977Z,4.40
2023-04-03T14:29:04.356Z,4.00
2023-04-03T14:30:10.492Z,3.00
2023-04-03T14:31:12.576Z,3.30
2023-04-03T14:32:17.185Z,3.78
2023-04-03T14:33:21.301Z,3.60
2023-04-03T14:34:24.571Z,2.92
2023-04-03T14:35:28.248Z,3.10
2023-04-03T14:36:33.138Z,3.63
2023-04-03T14:37:36.382Z,4.18
2023-04-03T14:38:39.514Z,3.97